sensor_id;sensor_type;location;lat;lon;timestamp;P1;durP1;ratioP1;P2;durP2;ratioP2
4933;SDS011;2482;49.154;8.254;2023-02-08T00:00:56;15.80;;;9.53;;
4933;SDS011;2482;49.154;8.254;2023-02-08T00:03:23;12.50;;;9.40;;
4933;SDS011;2482;49.154;8.254;2023-02-08T00:05:52;13.60;;;9.00;;
4933;SDS011;2482;49.154;8.254;2023-02-08T00:08:19;13.10;;;8.93;;
4933;SDS011;2482;49.154;8.254;2023-02-08T00:10:47;16.90;;;10.27;;
4933;SDS011;2482;49.154;8.254;2023-02-08T00:13:14;16.67;;;9.27;;
4933;SDS011;2482;49.154;8.254;2023-02-08T00:15:42;14.87;;;9.13;;
4933;SDS011;2482;49.154;8.254;2023-02-08T00:18:11;15.17;;;9.90;;
4933;SDS011;2482;49.154;8.254;2023-02-08T00:20:39;17.37;;;9.40;;
4933;SDS011;2482;49.154;8.254;2023-02-08T00:23:08;14.13;;;8.53;;
4933;SDS011;2482;49.154;8.254;2023-02-08T00:25:36;15.93;;;10.87;;
4933;SDS011;2482;49.154;8.254;2023-02-08T00:28:03;13.83;;;8.47;;
4933;SDS011;2482;49.154;8.254;2023-02-08T00:30:34;14.93;;;9.10;;
4933;SDS011;2482;49.154;8.254;2023-02-08T00:33:02;14.23;;;8.77;;
4933;SDS011;2482;49.154;8.254;2023-02-08T00:35:29;15.70;;;9.47;;
4933;SDS011;2482;49.154;8.254;2023-02-08T00:37:57;14.00;;;8.70;;
4933;SDS011;2482;49.154;8.254;2023-02-08T00:40:24;16.17;;;9.90;;
4933;SDS011;2482;49.154;8.254;2023-02-08T00:42:52;16.27;;;9.20;;
4933;SDS011;2482;49.154;8.254;2023-02-08T00:45:19;12.67;;;8.37;;
4933;SDS011;2482;49.154;8.254;2023-02-08T00:47:46;14.43;;;8.80;;
4933;SDS011;2482;49.154;8.254;2023-02-08T00:50:13;14.50;;;9.20;;
4933;SDS011;2482;49.154;8.254;2023-02-08T00:52:40;16.37;;;8.97;;
4933;SDS011;2482;49.154;8.254;2023-02-08T00:55:07;11.40;;;8.73;;
4933;SDS011;2482;49.154;8.254;2023-02-08T00:57:34;15.67;;;8.70;;
4933;SDS011;2482;49.154;8.254;2023-02-08T01:00:02;11.90;;;8.17;;
4933;SDS011;2482;49.154;8.254;2023-02-08T01:02:30;18.20;;;9.30;;
4933;SDS011;2482;49.154;8.254;2023-02-08T01:04:57;13.10;;;8.30;;
4933;SDS011;2482;49.154;8.254;2023-02-08T01:07:24;13.23;;;8.77;;
4933;SDS011;2482;49.154;8.254;2023-02-08T01:09:51;16.40;;;8.07;;
4933;SDS011;2482;49.154;8.254;2023-02-08T01:12:18;13.37;;;9.37;;
4933;SDS011;2482;49.154;8.254;2023-02-08T01:14:45;14.03;;;8.50;;
4933;SDS011;2482;49.154;8.254;2023-02-08T01:17:12;14.67;;;8.40;;
4933;SDS011;2482;49.154;8.254;2023-02-08T01:19:39;12.97;;;8.37;;
4933;SDS011;2482;49.154;8.254;2023-02-08T01:22:07;12.03;;;8.30;;
4933;SDS011;2482;49.154;8.254;2023-02-08T01:24:34;13.97;;;8.47;;
4933;SDS011;2482;49.154;8.254;2023-02-08T01:27:01;16.37;;;8.03;;
4933;SDS011;2482;49.154;8.254;2023-02-08T01:29:28;12.30;;;7.90;;
4933;SDS011;2482;49.154;8.254;2023-02-08T01:31:55;14.77;;;8.40;;
4933;SDS011;2482;49.154;8.254;2023-02-08T01:34:22;13.50;;;8.70;;
4933;SDS011;2482;49.154;8.254;2023-02-08T01:36:49;18.00;;;8.70;;
4933;SDS011;2482;49.154;8.254;2023-02-08T01:39:16;13.37;;;8.10;;
4933;SDS011;2482;49.154;8.254;2023-02-08T01:41:43;11.93;;;7.43;;
4933;SDS011;2482;49.154;8.254;2023-02-08T01:46:39;14.83;;;8.03;;
4933;SDS011;2482;49.154;8.254;2023-02-08T01:51:52;14.50;;;7.70;;
4933;SDS011;2482;49.154;8.254;2023-02-08T01:54:33;12.47;;;8.50;;
4933;SDS011;2482;49.154;8.254;2023-02-08T01:57:06;14.67;;;8.37;;
4933;SDS011;2482;49.154;8.254;2023-02-08T02:02:38;14.83;;;8.60;;
4933;SDS011;2482;49.154;8.254;2023-02-08T02:05:07;12.80;;;7.80;;
4933;SDS011;2482;49.154;8.254;2023-02-08T02:07:34;12.03;;;8.33;;
4933;SDS011;2482;49.154;8.254;2023-02-08T02:10:13;12.23;;;8.07;;
4933;SDS011;2482;49.154;8.254;2023-02-08T02:12:48;13.07;;;8.30;;
4933;SDS011;2482;49.154;8.254;2023-02-08T02:15:17;11.40;;;7.30;;
4933;SDS011;2482;49.154;8.254;2023-02-08T02:17:44;11.60;;;7.60;;
4933;SDS011;2482;49.154;8.254;2023-02-08T02:20:17;11.37;;;7.27;;
4933;SDS011;2482;49.154;8.254;2023-02-08T02:34:22;11.23;;;7.67;;
4933;SDS011;2482;49.154;8.254;2023-02-08T02:37:07;10.70;;;7.60;;
4933;SDS011;2482;49.154;8.254;2023-02-08T02:39:53;12.57;;;8.03;;
4933;SDS011;2482;49.154;8.254;2023-02-08T02:48:41;11.47;;;7.50;;
4933;SDS011;2482;49.154;8.254;2023-02-08T02:54:18;12.10;;;6.70;;
4933;SDS011;2482;49.154;8.254;2023-02-08T02:56:51;9.50;;;6.50;;
4933;SDS011;2482;49.154;8.254;2023-02-08T02:59:22;9.93;;;7.37;;
4933;SDS011;2482;49.154;8.254;2023-02-08T03:01:52;10.03;;;7.43;;
4933;SDS011;2482;49.154;8.254;2023-02-08T03:07:12;10.50;;;6.53;;
4933;SDS011;2482;49.154;8.254;2023-02-08T03:12:57;14.30;;;8.07;;
4933;SDS011;2482;49.154;8.254;2023-02-08T03:24:13;11.70;;;7.63;;
4933;SDS011;2482;49.154;8.254;2023-02-08T03:26:53;11.53;;;7.30;;
4933;SDS011;2482;49.154;8.254;2023-02-08T03:32:09;10.80;;;7.73;;
4933;SDS011;2482;49.154;8.254;2023-02-08T03:34:52;14.50;;;8.73;;
4933;SDS011;2482;49.154;8.254;2023-02-08T03:37:47;16.63;;;8.40;;
4933;SDS011;2482;49.154;8.254;2023-02-08T03:40:27;11.63;;;7.80;;
4933;SDS011;2482;49.154;8.254;2023-02-08T03:42:59;10.40;;;7.70;;
4933;SDS011;2482;49.154;8.254;2023-02-08T03:45:38;13.13;;;7.60;;
4933;SDS011;2482;49.154;8.254;2023-02-08T03:48:10;18.00;;;8.30;;
4933;SDS011;2482;49.154;8.254;2023-02-08T03:50:39;12.43;;;8.53;;
4933;SDS011;2482;49.154;8.254;2023-02-08T03:53:12;13.00;;;7.67;;
4933;SDS011;2482;49.154;8.254;2023-02-08T03:55:44;12.97;;;7.43;;
4933;SDS011;2482;49.154;8.254;2023-02-08T03:58:33;14.83;;;8.80;;
4933;SDS011;2482;49.154;8.254;2023-02-08T04:01:26;14.30;;;7.93;;
4933;SDS011;2482;49.154;8.254;2023-02-08T04:03:59;13.80;;;8.43;;
4933;SDS011;2482;49.154;8.254;2023-02-08T04:06:26;13.90;;;8.53;;
4933;SDS011;2482;49.154;8.254;2023-02-08T04:08:53;15.53;;;8.67;;
4933;SDS011;2482;49.154;8.254;2023-02-08T04:11:21;11.73;;;7.27;;
4933;SDS011;2482;49.154;8.254;2023-02-08T04:13:48;13.43;;;8.80;;
4933;SDS011;2482;49.154;8.254;2023-02-08T04:16:15;13.63;;;7.90;;
4933;SDS011;2482;49.154;8.254;2023-02-08T04:18:42;13.60;;;7.70;;
4933;SDS011;2482;49.154;8.254;2023-02-08T04:21:09;12.20;;;7.77;;
4933;SDS011;2482;49.154;8.254;2023-02-08T04:23:35;13.43;;;7.80;;
4933;SDS011;2482;49.154;8.254;2023-02-08T04:26:02;12.17;;;8.50;;
4933;SDS011;2482;49.154;8.254;2023-02-08T04:28:29;11.10;;;8.40;;
4933;SDS011;2482;49.154;8.254;2023-02-08T04:30:58;16.43;;;8.43;;
4933;SDS011;2482;49.154;8.254;2023-02-08T04:33:25;14.87;;;7.93;;
4933;SDS011;2482;49.154;8.254;2023-02-08T04:35:52;11.60;;;7.40;;
4933;SDS011;2482;49.154;8.254;2023-02-08T04:38:20;13.40;;;8.57;;
4933;SDS011;2482;49.154;8.254;2023-02-08T04:40:47;13.20;;;8.27;;
4933;SDS011;2482;49.154;8.254;2023-02-08T04:43:14;15.93;;;8.03;;
4933;SDS011;2482;49.154;8.254;2023-02-08T04:45:41;12.50;;;7.40;;
4933;SDS011;2482;49.154;8.254;2023-02-08T04:48:08;13.83;;;7.17;;
4933;SDS011;2482;49.154;8.254;2023-02-08T04:50:37;13.93;;;7.50;;
4933;SDS011;2482;49.154;8.254;2023-02-08T04:53:05;15.93;;;8.50;;
4933;SDS011;2482;49.154;8.254;2023-02-08T04:55:32;12.33;;;8.10;;
4933;SDS011;2482;49.154;8.254;2023-02-08T04:57:59;13.50;;;8.07;;
4933;SDS011;2482;49.154;8.254;2023-02-08T05:00:27;12.70;;;7.83;;
4933;SDS011;2482;49.154;8.254;2023-02-08T05:02:55;16.97;;;8.90;;
4933;SDS011;2482;49.154;8.254;2023-02-08T05:05:24;13.30;;;8.00;;
4933;SDS011;2482;49.154;8.254;2023-02-08T05:07:52;20.33;;;8.67;;
4933;SDS011;2482;49.154;8.254;2023-02-08T05:10:19;13.40;;;8.13;;
4933;SDS011;2482;49.154;8.254;2023-02-08T05:12:47;12.53;;;8.43;;
4933;SDS011;2482;49.154;8.254;2023-02-08T05:15:14;11.63;;;7.50;;
4933;SDS011;2482;49.154;8.254;2023-02-08T05:17:41;14.40;;;8.13;;
4933;SDS011;2482;49.154;8.254;2023-02-08T05:20:08;13.73;;;8.37;;
4933;SDS011;2482;49.154;8.254;2023-02-08T05:22:37;11.50;;;7.80;;
4933;SDS011;2482;49.154;8.254;2023-02-08T05:25:04;12.60;;;7.90;;
4933;SDS011;2482;49.154;8.254;2023-02-08T05:27:32;13.70;;;9.20;;
4933;SDS011;2482;49.154;8.254;2023-02-08T05:30:00;15.20;;;8.50;;
4933;SDS011;2482;49.154;8.254;2023-02-08T05:32:27;12.97;;;8.43;;
4933;SDS011;2482;49.154;8.254;2023-02-08T05:34:54;14.57;;;8.37;;
4933;SDS011;2482;49.154;8.254;2023-02-08T05:37:21;10.87;;;7.30;;
4933;SDS011;2482;49.154;8.254;2023-02-08T05:39:48;13.50;;;8.13;;
4933;SDS011;2482;49.154;8.254;2023-02-08T05:42:15;12.40;;;8.37;;
4933;SDS011;2482;49.154;8.254;2023-02-08T05:44:42;16.00;;;8.63;;
4933;SDS011;2482;49.154;8.254;2023-02-08T05:47:09;12.93;;;8.20;;
4933;SDS011;2482;49.154;8.254;2023-02-08T05:49:36;16.97;;;8.23;;
4933;SDS011;2482;49.154;8.254;2023-02-08T05:52:04;12.53;;;7.80;;
4933;SDS011;2482;49.154;8.254;2023-02-08T05:54:31;10.33;;;6.70;;
4933;SDS011;2482;49.154;8.254;2023-02-08T05:56:58;12.50;;;8.30;;
4933;SDS011;2482;49.154;8.254;2023-02-08T05:59:25;12.80;;;7.57;;
4933;SDS011;2482;49.154;8.254;2023-02-08T06:01:52;13.50;;;8.60;;
4933;SDS011;2482;49.154;8.254;2023-02-08T06:04:19;13.00;;;7.57;;
4933;SDS011;2482;49.154;8.254;2023-02-08T06:06:46;10.77;;;7.17;;
4933;SDS011;2482;49.154;8.254;2023-02-08T06:09:13;13.57;;;7.93;;
4933;SDS011;2482;49.154;8.254;2023-02-08T06:11:41;10.93;;;7.20;;
4933;SDS011;2482;49.154;8.254;2023-02-08T06:14:08;12.17;;;7.77;;
4933;SDS011;2482;49.154;8.254;2023-02-08T06:16:35;17.00;;;7.60;;
4933;SDS011;2482;49.154;8.254;2023-02-08T06:19:02;13.17;;;8.67;;
4933;SDS011;2482;49.154;8.254;2023-02-08T06:21:29;11.37;;;7.97;;
4933;SDS011;2482;49.154;8.254;2023-02-08T06:23:56;16.60;;;9.63;;
4933;SDS011;2482;49.154;8.254;2023-02-08T06:26:23;10.70;;;7.23;;
4933;SDS011;2482;49.154;8.254;2023-02-08T06:28:50;10.00;;;7.50;;
4933;SDS011;2482;49.154;8.254;2023-02-08T06:31:17;12.77;;;7.33;;
4933;SDS011;2482;49.154;8.254;2023-02-08T06:33:44;17.03;;;9.30;;
4933;SDS011;2482;49.154;8.254;2023-02-08T06:36:11;13.17;;;7.30;;
4933;SDS011;2482;49.154;8.254;2023-02-08T06:38:38;15.53;;;8.57;;
4933;SDS011;2482;49.154;8.254;2023-02-08T06:41:05;13.80;;;7.97;;
4933;SDS011;2482;49.154;8.254;2023-02-08T06:43:32;13.50;;;8.07;;
4933;SDS011;2482;49.154;8.254;2023-02-08T06:45:59;19.23;;;8.33;;
4933;SDS011;2482;49.154;8.254;2023-02-08T06:48:30;14.43;;;9.00;;
4933;SDS011;2482;49.154;8.254;2023-02-08T06:50:57;13.30;;;8.13;;
4933;SDS011;2482;49.154;8.254;2023-02-08T06:53:24;11.93;;;7.57;;
4933;SDS011;2482;49.154;8.254;2023-02-08T06:55:51;10.53;;;6.90;;
4933;SDS011;2482;49.154;8.254;2023-02-08T06:58:19;12.30;;;8.40;;
4933;SDS011;2482;49.154;8.254;2023-02-08T07:00:46;12.43;;;7.53;;
4933;SDS011;2482;49.154;8.254;2023-02-08T07:03:14;17.13;;;8.67;;
4933;SDS011;2482;49.154;8.254;2023-02-08T07:05:42;12.80;;;7.57;;
4933;SDS011;2482;49.154;8.254;2023-02-08T07:08:29;14.23;;;7.20;;
4933;SDS011;2482;49.154;8.254;2023-02-08T07:10:57;15.40;;;7.70;;
4933;SDS011;2482;49.154;8.254;2023-02-08T07:13:24;11.17;;;7.13;;
4933;SDS011;2482;49.154;8.254;2023-02-08T07:15:51;10.90;;;8.03;;
4933;SDS011;2482;49.154;8.254;2023-02-08T07:18:18;13.30;;;8.03;;
4933;SDS011;2482;49.154;8.254;2023-02-08T07:20:45;11.70;;;7.47;;
4933;SDS011;2482;49.154;8.254;2023-02-08T07:23:14;12.70;;;8.20;;
4933;SDS011;2482;49.154;8.254;2023-02-08T07:25:41;13.47;;;7.50;;
4933;SDS011;2482;49.154;8.254;2023-02-08T07:28:08;13.47;;;8.03;;
4933;SDS011;2482;49.154;8.254;2023-02-08T07:30:35;11.70;;;7.60;;
4933;SDS011;2482;49.154;8.254;2023-02-08T07:33:02;14.23;;;8.10;;
4933;SDS011;2482;49.154;8.254;2023-02-08T07:35:29;13.87;;;7.73;;
4933;SDS011;2482;49.154;8.254;2023-02-08T07:37:56;19.13;;;7.80;;
4933;SDS011;2482;49.154;8.254;2023-02-08T07:40:23;11.33;;;8.20;;
4933;SDS011;2482;49.154;8.254;2023-02-08T07:42:50;11.53;;;8.37;;
4933;SDS011;2482;49.154;8.254;2023-02-08T07:45:17;12.63;;;8.27;;
4933;SDS011;2482;49.154;8.254;2023-02-08T07:47:44;11.53;;;7.90;;
4933;SDS011;2482;49.154;8.254;2023-02-08T07:50:12;12.10;;;7.83;;
4933;SDS011;2482;49.154;8.254;2023-02-08T07:52:42;11.70;;;7.87;;
4933;SDS011;2482;49.154;8.254;2023-02-08T07:55:11;21.03;;;8.83;;
4933;SDS011;2482;49.154;8.254;2023-02-08T07:57:46;14.23;;;7.50;;
4933;SDS011;2482;49.154;8.254;2023-02-08T08:00:15;11.17;;;7.90;;
4933;SDS011;2482;49.154;8.254;2023-02-08T08:02:44;13.77;;;8.10;;
4933;SDS011;2482;49.154;8.254;2023-02-08T08:05:11;12.40;;;7.40;;
4933;SDS011;2482;49.154;8.254;2023-02-08T08:07:38;13.63;;;8.23;;
4933;SDS011;2482;49.154;8.254;2023-02-08T08:10:05;12.87;;;8.03;;
4933;SDS011;2482;49.154;8.254;2023-02-08T08:12:33;15.90;;;8.63;;
4933;SDS011;2482;49.154;8.254;2023-02-08T08:15:00;14.10;;;8.43;;
4933;SDS011;2482;49.154;8.254;2023-02-08T08:17:27;16.37;;;9.07;;
4933;SDS011;2482;49.154;8.254;2023-02-08T08:19:55;15.60;;;8.93;;
4933;SDS011;2482;49.154;8.254;2023-02-08T08:22:24;14.00;;;8.40;;
4933;SDS011;2482;49.154;8.254;2023-02-08T08:24:51;14.50;;;8.77;;
4933;SDS011;2482;49.154;8.254;2023-02-08T08:27:19;17.83;;;8.17;;
4933;SDS011;2482;49.154;8.254;2023-02-08T08:29:45;14.33;;;8.50;;
4933;SDS011;2482;49.154;8.254;2023-02-08T08:32:12;17.30;;;7.87;;
4933;SDS011;2482;49.154;8.254;2023-02-08T08:34:40;14.33;;;8.53;;
4933;SDS011;2482;49.154;8.254;2023-02-08T08:37:07;12.60;;;7.67;;
4933;SDS011;2482;49.154;8.254;2023-02-08T08:39:35;13.73;;;9.00;;
4933;SDS011;2482;49.154;8.254;2023-02-08T08:42:02;14.77;;;9.00;;
4933;SDS011;2482;49.154;8.254;2023-02-08T08:44:31;12.97;;;8.20;;
4933;SDS011;2482;49.154;8.254;2023-02-08T08:46:58;13.87;;;8.57;;
4933;SDS011;2482;49.154;8.254;2023-02-08T08:49:27;12.60;;;7.77;;
4933;SDS011;2482;49.154;8.254;2023-02-08T08:51:54;14.50;;;9.20;;
4933;SDS011;2482;49.154;8.254;2023-02-08T08:54:22;11.53;;;8.40;;
4933;SDS011;2482;49.154;8.254;2023-02-08T08:56:49;13.93;;;8.50;;
4933;SDS011;2482;49.154;8.254;2023-02-08T08:59:16;15.07;;;9.00;;
4933;SDS011;2482;49.154;8.254;2023-02-08T09:01:43;15.23;;;8.87;;
4933;SDS011;2482;49.154;8.254;2023-02-08T09:04:10;12.83;;;8.37;;
4933;SDS011;2482;49.154;8.254;2023-02-08T09:06:38;14.47;;;9.27;;
4933;SDS011;2482;49.154;8.254;2023-02-08T09:09:05;15.33;;;9.60;;
4933;SDS011;2482;49.154;8.254;2023-02-08T09:11:32;15.47;;;9.60;;
4933;SDS011;2482;49.154;8.254;2023-02-08T09:14:03;16.40;;;9.33;;
4933;SDS011;2482;49.154;8.254;2023-02-08T09:16:30;18.13;;;8.80;;
4933;SDS011;2482;49.154;8.254;2023-02-08T09:19:02;16.43;;;8.63;;
4933;SDS011;2482;49.154;8.254;2023-02-08T09:21:32;16.20;;;8.87;;
4933;SDS011;2482;49.154;8.254;2023-02-08T09:23:59;15.07;;;8.60;;
4933;SDS011;2482;49.154;8.254;2023-02-08T09:26:28;16.73;;;9.33;;
4933;SDS011;2482;49.154;8.254;2023-02-08T09:28:55;19.33;;;8.90;;
4933;SDS011;2482;49.154;8.254;2023-02-08T09:31:23;12.77;;;8.13;;
4933;SDS011;2482;49.154;8.254;2023-02-08T09:33:59;13.67;;;8.17;;
4933;SDS011;2482;49.154;8.254;2023-02-08T09:36:28;13.03;;;7.97;;
4933;SDS011;2482;49.154;8.254;2023-02-08T09:39:00;13.87;;;8.40;;
4933;SDS011;2482;49.154;8.254;2023-02-08T09:53:57;14.27;;;8.90;;
4933;SDS011;2482;49.154;8.254;2023-02-08T09:56:33;12.03;;;7.77;;
4933;SDS011;2482;49.154;8.254;2023-02-08T09:59:07;11.53;;;7.57;;
4933;SDS011;2482;49.154;8.254;2023-02-08T10:01:43;13.27;;;8.20;;
4933;SDS011;2482;49.154;8.254;2023-02-08T10:04:24;12.23;;;8.30;;
4933;SDS011;2482;49.154;8.254;2023-02-08T10:06:59;11.80;;;8.00;;
4933;SDS011;2482;49.154;8.254;2023-02-08T10:09:27;11.97;;;7.50;;
4933;SDS011;2482;49.154;8.254;2023-02-08T10:12:05;15.13;;;9.30;;
4933;SDS011;2482;49.154;8.254;2023-02-08T10:17:47;16.63;;;8.67;;
4933;SDS011;2482;49.154;8.254;2023-02-08T10:23:42;12.60;;;7.80;;
4933;SDS011;2482;49.154;8.254;2023-02-08T10:26:46;13.80;;;8.37;;
4933;SDS011;2482;49.154;8.254;2023-02-08T10:35:24;13.13;;;7.87;;
4933;SDS011;2482;49.154;8.254;2023-02-08T10:40:45;13.00;;;8.00;;
4933;SDS011;2482;49.154;8.254;2023-02-08T10:46:22;11.90;;;7.77;;
4933;SDS011;2482;49.154;8.254;2023-02-08T10:52:23;13.40;;;7.63;;
4933;SDS011;2482;49.154;8.254;2023-02-08T10:54:50;13.23;;;8.53;;
4933;SDS011;2482;49.154;8.254;2023-02-08T10:57:27;13.43;;;7.67;;
4933;SDS011;2482;49.154;8.254;2023-02-08T10:59:58;15.93;;;8.40;;
4933;SDS011;2482;49.154;8.254;2023-02-08T11:02:30;15.23;;;8.73;;
4933;SDS011;2482;49.154;8.254;2023-02-08T11:05:06;14.20;;;9.40;;
4933;SDS011;2482;49.154;8.254;2023-02-08T11:07:40;15.20;;;8.60;;
4933;SDS011;2482;49.154;8.254;2023-02-08T11:10:21;11.63;;;7.53;;
4933;SDS011;2482;49.154;8.254;2023-02-08T11:12:55;16.90;;;8.80;;
4933;SDS011;2482;49.154;8.254;2023-02-08T11:15:26;15.07;;;9.33;;
4933;SDS011;2482;49.154;8.254;2023-02-08T11:18:06;14.63;;;8.23;;
4933;SDS011;2482;49.154;8.254;2023-02-08T11:20:47;13.27;;;8.57;;
4933;SDS011;2482;49.154;8.254;2023-02-08T11:23:25;13.03;;;8.03;;
4933;SDS011;2482;49.154;8.254;2023-02-08T11:26:12;11.70;;;7.10;;
4933;SDS011;2482;49.154;8.254;2023-02-08T11:28:43;11.63;;;7.87;;
4933;SDS011;2482;49.154;8.254;2023-02-08T11:31:57;13.07;;;8.40;;
4933;SDS011;2482;49.154;8.254;2023-02-08T11:34:28;12.50;;;7.57;;
4933;SDS011;2482;49.154;8.254;2023-02-08T11:36:59;13.30;;;8.47;;
4933;SDS011;2482;49.154;8.254;2023-02-08T11:39:34;12.40;;;8.10;;
4933;SDS011;2482;49.154;8.254;2023-02-08T11:42:06;12.20;;;8.23;;
4933;SDS011;2482;49.154;8.254;2023-02-08T11:45:02;14.40;;;9.07;;
4933;SDS011;2482;49.154;8.254;2023-02-08T11:47:31;12.40;;;7.13;;
4933;SDS011;2482;49.154;8.254;2023-02-08T11:50:07;13.63;;;7.90;;
4933;SDS011;2482;49.154;8.254;2023-02-08T11:52:50;10.00;;;6.70;;
4933;SDS011;2482;49.154;8.254;2023-02-08T11:55:27;10.83;;;7.43;;
4933;SDS011;2482;49.154;8.254;2023-02-08T11:57:59;12.93;;;7.27;;
4933;SDS011;2482;49.154;8.254;2023-02-08T12:00:38;11.93;;;8.43;;
4933;SDS011;2482;49.154;8.254;2023-02-08T12:05:59;12.40;;;8.00;;
4933;SDS011;2482;49.154;8.254;2023-02-08T12:12:14;13.57;;;8.40;;
4933;SDS011;2482;49.154;8.254;2023-02-08T12:18:27;13.30;;;7.40;;
4933;SDS011;2482;49.154;8.254;2023-02-08T12:23:55;11.93;;;8.13;;
4933;SDS011;2482;49.154;8.254;2023-02-08T12:35:17;12.20;;;7.73;;
4933;SDS011;2482;49.154;8.254;2023-02-08T12:38:33;14.40;;;7.33;;
4933;SDS011;2482;49.154;8.254;2023-02-08T12:50:35;12.20;;;7.20;;
4933;SDS011;2482;49.154;8.254;2023-02-08T12:56:09;9.83;;;6.63;;
4933;SDS011;2482;49.154;8.254;2023-02-08T12:58:43;10.33;;;7.07;;
4933;SDS011;2482;49.154;8.254;2023-02-08T13:01:21;13.30;;;7.23;;
4933;SDS011;2482;49.154;8.254;2023-02-08T13:06:41;10.40;;;7.07;;
4933;SDS011;2482;49.154;8.254;2023-02-08T13:12:03;12.60;;;7.27;;
4933;SDS011;2482;49.154;8.254;2023-02-08T13:14:50;10.77;;;7.03;;
4933;SDS011;2482;49.154;8.254;2023-02-08T13:22:40;12.43;;;7.30;;
4933;SDS011;2482;49.154;8.254;2023-02-08T13:25:15;13.33;;;7.23;;
4933;SDS011;2482;49.154;8.254;2023-02-08T13:27:58;11.20;;;7.67;;
4933;SDS011;2482;49.154;8.254;2023-02-08T13:30:43;10.43;;;6.53;;
4933;SDS011;2482;49.154;8.254;2023-02-08T13:33:21;10.17;;;6.93;;
4933;SDS011;2482;49.154;8.254;2023-02-08T13:36:01;10.47;;;6.20;;
4933;SDS011;2482;49.154;8.254;2023-02-08T13:38:30;10.33;;;7.43;;
4933;SDS011;2482;49.154;8.254;2023-02-08T13:41:04;12.37;;;7.00;;
4933;SDS011;2482;49.154;8.254;2023-02-08T13:43:45;11.40;;;7.17;;
4933;SDS011;2482;49.154;8.254;2023-02-08T13:46:19;9.70;;;6.53;;
4933;SDS011;2482;49.154;8.254;2023-02-08T13:48:53;9.03;;;6.60;;
4933;SDS011;2482;49.154;8.254;2023-02-08T13:56:36;8.70;;;6.27;;
4933;SDS011;2482;49.154;8.254;2023-02-08T14:04:46;8.13;;;5.63;;
4933;SDS011;2482;49.154;8.254;2023-02-08T14:10:30;7.90;;;5.90;;
4933;SDS011;2482;49.154;8.254;2023-02-08T14:15:46;12.90;;;7.93;;
4933;SDS011;2482;49.154;8.254;2023-02-08T14:19:20;10.23;;;6.37;;
4933;SDS011;2482;49.154;8.254;2023-02-08T14:24:27;8.00;;;5.93;;
4933;SDS011;2482;49.154;8.254;2023-02-08T14:27:16;8.87;;;6.07;;
4933;SDS011;2482;49.154;8.254;2023-02-08T14:30:02;10.47;;;5.83;;
4933;SDS011;2482;49.154;8.254;2023-02-08T14:32:33;6.07;;;4.63;;
4933;SDS011;2482;49.154;8.254;2023-02-08T14:37:40;7.50;;;5.43;;
4933;SDS011;2482;49.154;8.254;2023-02-08T14:45:34;15.77;;;6.07;;
4933;SDS011;2482;49.154;8.254;2023-02-08T14:56:30;9.10;;;5.80;;
4933;SDS011;2482;49.154;8.254;2023-02-08T14:59:14;7.90;;;5.80;;
4933;SDS011;2482;49.154;8.254;2023-02-08T15:01:46;8.80;;;5.80;;
4933;SDS011;2482;49.154;8.254;2023-02-08T15:04:18;9.47;;;6.10;;
4933;SDS011;2482;49.154;8.254;2023-02-08T15:09:47;10.23;;;6.80;;
4933;SDS011;2482;49.154;8.254;2023-02-08T15:12:16;10.17;;;6.10;;
4933;SDS011;2482;49.154;8.254;2023-02-08T15:14:56;9.23;;;5.90;;
4933;SDS011;2482;49.154;8.254;2023-02-08T15:17:38;9.93;;;5.77;;
4933;SDS011;2482;49.154;8.254;2023-02-08T15:23:14;7.20;;;5.83;;
4933;SDS011;2482;49.154;8.254;2023-02-08T15:26:00;7.93;;;6.07;;
4933;SDS011;2482;49.154;8.254;2023-02-08T15:28:34;8.37;;;5.83;;
4933;SDS011;2482;49.154;8.254;2023-02-08T15:31:05;11.40;;;6.07;;
4933;SDS011;2482;49.154;8.254;2023-02-08T15:33:40;9.33;;;6.13;;
4933;SDS011;2482;49.154;8.254;2023-02-08T15:36:24;7.43;;;6.13;;
4933;SDS011;2482;49.154;8.254;2023-02-08T15:39:00;9.17;;;5.80;;
4933;SDS011;2482;49.154;8.254;2023-02-08T15:41:36;9.33;;;6.53;;
4933;SDS011;2482;49.154;8.254;2023-02-08T15:44:20;10.67;;;6.37;;
4933;SDS011;2482;49.154;8.254;2023-02-08T15:46:50;7.70;;;5.43;;
4933;SDS011;2482;49.154;8.254;2023-02-08T15:49:20;6.30;;;5.13;;
4933;SDS011;2482;49.154;8.254;2023-02-08T15:52:03;9.70;;;6.10;;
4933;SDS011;2482;49.154;8.254;2023-02-08T15:54:32;7.70;;;5.50;;
4933;SDS011;2482;49.154;8.254;2023-02-08T15:57:05;9.70;;;5.90;;
4933;SDS011;2482;49.154;8.254;2023-02-08T15:59:43;11.30;;;6.13;;
4933;SDS011;2482;49.154;8.254;2023-02-08T16:04:53;13.90;;;7.17;;
4933;SDS011;2482;49.154;8.254;2023-02-08T16:13:13;10.07;;;5.90;;
4933;SDS011;2482;49.154;8.254;2023-02-08T16:15:55;8.60;;;5.17;;
4933;SDS011;2482;49.154;8.254;2023-02-08T16:18:47;7.30;;;5.60;;
4933;SDS011;2482;49.154;8.254;2023-02-08T16:23:51;8.87;;;5.80;;
4933;SDS011;2482;49.154;8.254;2023-02-08T16:29:04;7.97;;;5.40;;
4933;SDS011;2482;49.154;8.254;2023-02-08T16:31:41;10.80;;;5.90;;
4933;SDS011;2482;49.154;8.254;2023-02-08T16:34:16;10.13;;;6.43;;
4933;SDS011;2482;49.154;8.254;2023-02-08T16:36:46;9.67;;;5.60;;
4933;SDS011;2482;49.154;8.254;2023-02-08T16:44:33;8.73;;;5.83;;
4933;SDS011;2482;49.154;8.254;2023-02-08T16:47:22;8.10;;;5.60;;
4933;SDS011;2482;49.154;8.254;2023-02-08T16:49:53;9.97;;;6.20;;
4933;SDS011;2482;49.154;8.254;2023-02-08T16:52:20;8.10;;;5.50;;
4933;SDS011;2482;49.154;8.254;2023-02-08T16:54:47;10.93;;;6.30;;
4933;SDS011;2482;49.154;8.254;2023-02-08T16:57:14;9.60;;;6.40;;
4933;SDS011;2482;49.154;8.254;2023-02-08T16:59:41;10.20;;;6.57;;
4933;SDS011;2482;49.154;8.254;2023-02-08T17:02:11;7.60;;;5.57;;
4933;SDS011;2482;49.154;8.254;2023-02-08T17:04:38;9.93;;;5.80;;
4933;SDS011;2482;49.154;8.254;2023-02-08T17:07:09;10.77;;;6.20;;
4933;SDS011;2482;49.154;8.254;2023-02-08T17:09:43;11.67;;;6.77;;
4933;SDS011;2482;49.154;8.254;2023-02-08T17:12:10;9.50;;;6.63;;
4933;SDS011;2482;49.154;8.254;2023-02-08T17:14:47;9.27;;;5.97;;
4933;SDS011;2482;49.154;8.254;2023-02-08T17:17:16;10.77;;;6.20;;
4933;SDS011;2482;49.154;8.254;2023-02-08T17:19:43;8.80;;;6.30;;
4933;SDS011;2482;49.154;8.254;2023-02-08T17:22:12;11.70;;;7.30;;
4933;SDS011;2482;49.154;8.254;2023-02-08T17:24:39;9.50;;;7.20;;
4933;SDS011;2482;49.154;8.254;2023-02-08T17:27:06;12.60;;;6.97;;
4933;SDS011;2482;49.154;8.254;2023-02-08T17:29:37;12.70;;;6.93;;
4933;SDS011;2482;49.154;8.254;2023-02-08T17:32:04;9.60;;;6.40;;
4933;SDS011;2482;49.154;8.254;2023-02-08T17:34:31;10.40;;;7.37;;
4933;SDS011;2482;49.154;8.254;2023-02-08T17:36:58;11.67;;;6.70;;
4933;SDS011;2482;49.154;8.254;2023-02-08T17:39:25;11.93;;;6.70;;
4933;SDS011;2482;49.154;8.254;2023-02-08T17:41:54;13.43;;;8.33;;
4933;SDS011;2482;49.154;8.254;2023-02-08T17:44:21;12.43;;;7.27;;
4933;SDS011;2482;49.154;8.254;2023-02-08T17:46:48;14.60;;;7.27;;
4933;SDS011;2482;49.154;8.254;2023-02-08T17:49:15;10.87;;;6.80;;
4933;SDS011;2482;49.154;8.254;2023-02-08T17:51:42;13.80;;;7.87;;
4933;SDS011;2482;49.154;8.254;2023-02-08T17:54:09;10.53;;;7.23;;
4933;SDS011;2482;49.154;8.254;2023-02-08T17:56:37;12.07;;;7.57;;
4933;SDS011;2482;49.154;8.254;2023-02-08T17:59:04;15.77;;;7.47;;
4933;SDS011;2482;49.154;8.254;2023-02-08T18:01:31;16.53;;;9.03;;
4933;SDS011;2482;49.154;8.254;2023-02-08T18:03:58;9.53;;;6.97;;
4933;SDS011;2482;49.154;8.254;2023-02-08T18:06:28;12.07;;;8.27;;
4933;SDS011;2482;49.154;8.254;2023-02-08T18:08:55;13.20;;;8.10;;
4933;SDS011;2482;49.154;8.254;2023-02-08T18:11:22;13.37;;;8.37;;
4933;SDS011;2482;49.154;8.254;2023-02-08T18:13:50;16.90;;;9.07;;
4933;SDS011;2482;49.154;8.254;2023-02-08T18:16:20;11.57;;;7.80;;
4933;SDS011;2482;49.154;8.254;2023-02-08T18:18:53;14.60;;;9.43;;
4933;SDS011;2482;49.154;8.254;2023-02-08T18:21:22;11.70;;;7.90;;
4933;SDS011;2482;49.154;8.254;2023-02-08T18:23:51;13.00;;;8.30;;
4933;SDS011;2482;49.154;8.254;2023-02-08T18:26:19;14.03;;;8.37;;
4933;SDS011;2482;49.154;8.254;2023-02-08T18:28:50;11.37;;;8.20;;
4933;SDS011;2482;49.154;8.254;2023-02-08T18:31:19;14.50;;;9.57;;
4933;SDS011;2482;49.154;8.254;2023-02-08T18:33:48;13.53;;;8.30;;